createdAt,value
2023-02-05T00:00:50.273Z,97323.63
2023-02-05T00:03:17.994Z,97321.13
2023-02-05T00:05:45.694Z,97321.63
2023-02-05T00:08:13.378Z,97312.31
2023-02-05T00:10:42.435Z,97316.13
2023-02-05T00:13:10.212Z,97320.63
2023-02-05T00:15:41.389Z,97323.13
2023-02-05T00:18:09.046Z,97325.13
2023-02-05T00:20:37.300Z,97320.13
2023-02-05T00:23:04.991Z,97310.00
2023-02-05T00:25:33.043Z,97307.13
2023-02-05T00:28:02.420Z,97313.50
2023-02-05T00:30:30.334Z,97310.66
2023-02-05T00:32:58.099Z,97312.97
2023-02-05T00:35:25.763Z,97313.66
2023-02-05T00:37:57.040Z,97311.63
2023-02-05T00:40:24.730Z,97320.97
2023-02-05T00:42:52.405Z,97312.97
2023-02-05T00:45:21.445Z,97310.16
2023-02-05T00:47:49.094Z,97318.47
2023-02-05T00:50:21.134Z,97332.78
2023-02-05T00:52:48.795Z,97313.81
2023-02-05T00:55:16.647Z,97318.31
2023-02-05T00:57:44.295Z,97328.63
2023-02-05T01:00:13.000Z,97327.09
2023-02-05T01:02:42.103Z,97336.25
2023-02-05T01:05:10.282Z,97333.91
2023-02-05T01:07:38.008Z,97328.06
2023-02-05T01:10:06.415Z,97325.25
2023-02-05T01:12:34.254Z,97319.59
2023-02-05T01:15:02.457Z,97317.25
2023-02-05T01:17:30.167Z,97315.75
2023-02-05T01:19:59.205Z,97310.25
2023-02-05T01:22:27.079Z,97310.72
2023-02-05T01:24:54.976Z,97314.06
2023-02-05T01:27:22.630Z,97312.91
2023-02-05T01:29:50.323Z,97317.06
2023-02-05T01:32:18.331Z,97315.91
2023-02-05T01:34:46.478Z,97308.06
2023-02-05T01:37:15.638Z,97303.75
2023-02-05T01:39:43.439Z,97312.56
2023-02-05T01:42:19.332Z,97312.41
2023-02-05T01:45:36.213Z,97303.28
2023-02-05T01:48:04.910Z,97310.56
2023-02-05T01:50:37.398Z,97313.22
2023-02-05T01:53:10.885Z,97305.41
2023-02-05T01:55:44.810Z,97303.28
2023-02-05T01:58:15.798Z,97301.56
2023-02-05T02:00:44.270Z,97294.56
2023-02-05T02:03:14.228Z,97307.81
2023-02-05T02:05:41.941Z,97311.31
2023-02-05T02:08:13.543Z,97307.16
2023-02-05T02:10:44.536Z,97306.81
2023-02-05T02:13:14.106Z,97300.31
2023-02-05T02:15:42.674Z,97293.19
2023-02-05T02:18:29.136Z,97295.50
2023-02-05T02:21:20.288Z,97292.84
2023-02-05T02:24:07.772Z,97294.19
2023-02-05T02:26:54.524Z,97292.38
2023-02-05T02:29:32.955Z,97288.41
2023-02-05T02:32:04.331Z,97290.25
2023-02-05T02:34:38.829Z,97290.09
2023-02-05T02:37:10.731Z,97279.94
2023-02-05T02:39:44.656Z,97278.59
2023-02-05T02:42:16.472Z,97277.06
2023-02-05T02:44:49.985Z,97275.09
2023-02-05T02:47:21.749Z,97262.28
2023-02-05T02:49:53.546Z,97261.13
2023-02-05T02:52:22.401Z,97267.94
2023-02-05T02:54:53.702Z,97269.09
2023-02-05T02:57:25.078Z,97261.63
2023-02-05T02:59:57.608Z,97262.78
2023-02-05T03:02:27.816Z,97271.06
2023-02-05T03:04:58.608Z,97267.22
2023-02-05T03:07:29.555Z,97260.72
2023-02-05T03:10:01.701Z,97276.00
2023-02-05T03:12:29.522Z,97269.81
2023-02-05T03:14:58.962Z,97265.66
2023-02-05T03:17:28.558Z,97264.66
2023-02-05T03:20:03.397Z,97261.31
2023-02-05T03:22:31.096Z,97251.31
2023-02-05T03:24:58.837Z,97243.31
2023-02-05T03:27:26.542Z,97241.13
2023-02-05T03:29:54.384Z,97241.28
2023-02-05T03:32:36.478Z,97234.25
2023-02-05T03:35:24.260Z,97226.28
2023-02-05T03:38:07.092Z,97219.44
2023-02-05T03:40:44.697Z,97218.06
2023-02-05T03:43:17.191Z,97214.88
2023-02-05T03:45:51.095Z,97221.31
2023-02-05T03:48:40.418Z,97212.34
2023-02-05T03:51:20.171Z,97220.19
2023-02-05T03:53:56.623Z,97212.22
2023-02-05T03:56:29.727Z,97224.34
2023-02-05T03:58:58.991Z,97219.03
2023-02-05T04:01:27.051Z,97228.59
2023-02-05T04:03:56.606Z,97234.66
2023-02-05T04:06:24.286Z,97225.09
2023-02-05T04:08:52.011Z,97226.91
2023-02-05T04:11:19.807Z,97220.63
2023-02-05T04:13:47.525Z,97218.31
2023-02-05T04:16:15.266Z,97226.75
2023-02-05T04:18:42.977Z,97219.47
2023-02-05T04:21:12.066Z,97223.13
2023-02-05T04:23:39.804Z,97220.63
2023-02-05T04:26:07.515Z,97215.47
2023-02-05T04:28:35.699Z,97219.25
2023-02-05T04:31:03.438Z,97209.63
2023-02-05T04:33:31.120Z,97206.91
2023-02-05T04:35:59.922Z,97211.72
2023-02-05T04:38:29.540Z,97202.94
2023-02-05T04:40:57.332Z,97191.94
2023-02-05T04:43:27.778Z,97191.78
2023-02-05T04:45:55.595Z,97194.38
2023-02-05T04:48:23.319Z,97194.38
2023-02-05T04:50:51.029Z,97186.09
2023-02-05T04:53:18.784Z,97185.56
2023-02-05T04:55:47.871Z,97194.38
2023-02-05T04:58:15.536Z,97191.44
2023-02-05T05:00:43.302Z,97194.59
2023-02-05T05:03:11.005Z,97190.91
2023-02-05T05:05:38.767Z,97194.50
2023-02-05T05:08:06.626Z,97195.09
2023-02-05T05:10:34.340Z,97193.28
2023-02-05T05:13:03.419Z,97185.94
2023-02-05T05:15:31.133Z,97192.13
2023-02-05T05:17:58.911Z,97184.03
2023-02-05T05:20:26.636Z,97183.72
2023-02-05T05:22:54.406Z,97195.84
2023-02-05T05:25:22.139Z,97192.97
2023-02-05T05:27:50.331Z,97191.38
2023-02-05T05:30:19.885Z,97179.78
2023-02-05T05:32:47.635Z,97186.06
2023-02-05T05:35:18.668Z,97189.53
2023-02-05T05:37:46.361Z,97195.69
2023-02-05T05:40:31.664Z,97194.31
2023-02-05T05:43:16.934Z,97191.00
2023-02-05T05:45:46.106Z,97184.31
2023-02-05T05:48:13.849Z,97173.53
2023-02-05T05:50:41.673Z,97188.75
2023-02-05T05:53:09.439Z,97185.56
2023-02-05T05:55:40.110Z,97182.19
2023-02-05T05:58:07.844Z,97195.88
2023-02-05T06:00:35.712Z,97196.03
2023-02-05T06:03:05.247Z,97182.41
2023-02-05T06:05:33.526Z,97187.16
2023-02-05T06:08:01.479Z,97185.19
2023-02-05T06:10:29.321Z,97191.34
2023-02-05T06:12:57.804Z,97197.41
2023-02-05T06:15:26.705Z,97180.69
2023-02-05T06:17:54.767Z,97187.78
2023-02-05T06:20:24.227Z,97185.13
2023-02-05T06:22:52.551Z,97194.13
2023-02-05T06:25:20.484Z,97191.41
2023-02-05T06:27:48.212Z,97196.22
2023-02-05T06:30:16.036Z,97192.84
2023-02-05T06:32:43.760Z,97194.50
2023-02-05T06:35:11.567Z,97201.78
2023-02-05T06:37:48.072Z,97203.13
2023-02-05T06:40:18.062Z,97211.13
2023-02-05T06:42:46.432Z,97214.56
2023-02-05T06:45:14.128Z,97217.88
2023-02-05T06:47:41.875Z,97211.66
2023-02-05T06:50:10.231Z,97193.75
2023-02-05T06:52:39.083Z,97209.53
2023-02-05T06:55:08.674Z,97213.53
2023-02-05T06:57:36.423Z,97199.13
2023-02-05T07:00:05.521Z,97197.47
2023-02-05T07:02:33.697Z,97211.03
2023-02-05T07:05:01.504Z,97213.22
2023-02-05T07:07:29.286Z,97213.03
2023-02-05T07:09:57.022Z,97210.47
2023-02-05T07:12:26.176Z,97203.38
2023-02-05T07:14:53.918Z,97215.88
2023-02-05T07:17:21.938Z,97209.41
2023-02-05T07:19:49.750Z,97210.63
2023-02-05T07:22:17.527Z,97212.63
2023-02-05T07:24:45.337Z,97218.81
2023-02-05T07:27:13.060Z,97201.25
2023-02-05T07:29:42.170Z,97207.91
2023-02-05T07:32:10.093Z,97197.50
2023-02-05T07:34:38.069Z,97203.66
2023-02-05T07:37:05.931Z,97206.50
2023-02-05T07:39:34.388Z,97208.34
2023-02-05T07:42:02.233Z,97205.88
2023-02-05T07:44:29.951Z,97202.59
2023-02-05T07:46:59.058Z,97201.75
2023-02-05T07:49:26.873Z,97209.75
2023-02-05T07:51:54.585Z,97210.88
2023-02-05T07:54:22.373Z,97209.75
2023-02-05T07:56:50.076Z,97200.97
2023-02-05T07:59:17.800Z,97202.63
2023-02-05T08:01:45.574Z,97209.13
2023-02-05T08:04:14.734Z,97212.81
2023-02-05T08:06:43.122Z,97202.69
2023-02-05T08:09:11.664Z,97205.31
2023-02-05T08:11:39.567Z,97204.00
2023-02-05T08:14:07.321Z,97208.19
2023-02-05T08:16:35.070Z,97210.34
2023-02-05T08:19:02.827Z,97212.16
2023-02-05T08:21:31.927Z,97200.66
2023-02-05T08:24:01.012Z,97203.44
2023-02-05T08:26:28.819Z,97201.22
2023-02-05T08:28:56.630Z,97195.69
2023-02-05T08:31:24.400Z,97200.44
2023-02-05T08:33:54.757Z,97196.41
2023-02-05T08:36:22.726Z,97193.59
2023-02-05T08:38:51.841Z,97180.91
2023-02-05T08:41:19.708Z,97174.72
2023-02-05T08:43:49.186Z,97170.00
2023-02-05T08:46:20.180Z,97169.50
2023-02-05T08:48:48.436Z,97168.13
2023-02-05T08:51:17.470Z,97155.66
2023-02-05T08:53:45.242Z,97148.38
2023-02-05T08:56:15.566Z,97149.50
2023-02-05T08:58:43.494Z,97129.13
2023-02-05T09:01:14.206Z,97124.50
2023-02-05T09:03:42.368Z,97119.91
2023-02-05T09:06:12.497Z,97112.72
2023-02-05T09:08:40.294Z,97106.53
2023-02-05T09:11:08.738Z,97103.97
2023-02-05T09:13:37.890Z,97092.78
2023-02-05T09:16:06.254Z,97084.06
2023-02-05T09:18:33.969Z,97091.56
2023-02-05T09:21:01.693Z,97086.28
2023-02-05T09:23:29.986Z,97075.03
2023-02-05T09:25:59.830Z,97082.06
2023-02-05T09:28:27.617Z,97080.03
2023-02-05T09:30:56.954Z,97076.44
2023-02-05T09:33:24.745Z,97065.31
2023-02-05T09:35:52.477Z,97070.28
2023-02-05T09:38:20.169Z,97064.97
2023-02-05T09:40:57.480Z,97066.03
2023-02-05T09:43:44.936Z,97060.28
2023-02-05T09:46:21.201Z,97063.41
2023-02-05T09:48:54.812Z,97062.78
2023-02-05T09:51:33.194Z,97058.03
2023-02-05T09:54:07.634Z,97056.78
2023-02-05T09:56:37.015Z,97049.50
2023-02-05T09:59:06.530Z,97058.28
2023-02-05T10:01:44.394Z,97054.69
2023-02-05T10:04:12.461Z,97043.72
2023-02-05T10:06:56.852Z,97032.59
2023-02-05T10:09:51.462Z,97019.88
2023-02-05T10:12:28.355Z,97005.06
2023-02-05T10:15:14.774Z,97001.72
2023-02-05T10:17:56.513Z,96996.22
2023-02-05T10:20:42.350Z,96985.84
2023-02-05T10:23:16.596Z,96989.28
2023-02-05T10:26:00.179Z,96984.81
2023-02-05T10:28:44.306Z,96987.28
2023-02-05T10:31:23.718Z,96985.06
2023-02-05T10:33:56.169Z,96974.00
2023-02-05T10:36:26.235Z,96967.63
2023-02-05T10:38:56.999Z,96964.28
2023-02-05T10:41:31.254Z,96948.88
2023-02-05T10:44:05.904Z,96946.19
2023-02-05T10:46:36.432Z,96956.16
2023-02-05T10:49:14.560Z,96955.41
2023-02-05T10:51:43.977Z,96944.84
2023-02-05T10:54:20.324Z,96945.41
2023-02-05T10:56:48.951Z,96942.25
2023-02-05T10:59:22.792Z,96944.00
2023-02-05T11:01:51.800Z,96948.03
2023-02-05T11:04:26.815Z,96938.47
2023-02-05T11:06:54.983Z,96934.81
2023-02-05T11:09:32.243Z,96919.94
2023-02-05T11:12:01.953Z,96915.66
2023-02-05T11:14:34.126Z,96924.78
2023-02-05T11:17:08.453Z,96924.88
2023-02-05T11:19:38.731Z,96923.34
2023-02-05T11:22:09.469Z,96932.13
2023-02-05T11:24:39.677Z,96918.78
2023-02-05T11:27:26.727Z,96920.59
2023-02-05T11:29:56.774Z,96917.09
2023-02-05T11:32:34.182Z,96920.47
2023-02-05T11:35:26.993Z,96931.09
2023-02-05T11:38:01.684Z,96931.53
2023-02-05T11:40:33.185Z,96932.56
2023-02-05T11:43:05.114Z,96932.06
2023-02-05T11:45:35.471Z,96947.34
2023-02-05T11:48:08.702Z,96936.25
2023-02-05T11:50:38.484Z,96947.16
2023-02-05T11:53:14.458Z,96942.34
2023-02-05T11:55:43.032Z,96944.56
2023-02-05T11:58:34.843Z,96936.09
2023-02-05T12:01:06.997Z,96932.97
2023-02-05T12:03:36.606Z,96927.19
2023-02-05T12:06:18.813Z,96929.50
2023-02-05T12:08:51.031Z,96941.66
2023-02-05T12:11:28.290Z,96945.00
2023-02-05T12:14:05.472Z,96939.88
2023-02-05T12:16:48.627Z,96940.13
2023-02-05T12:19:22.299Z,96939.06
2023-02-05T12:22:00.541Z,96928.09
2023-02-05T12:24:56.593Z,96926.66
2023-02-05T12:27:40.175Z,96919.41
2023-02-05T12:30:27.779Z,96925.09
2023-02-05T12:33:06.841Z,96918.03
2023-02-05T12:35:48.903Z,96914.97
2023-02-05T12:38:32.422Z,96918.91
2023-02-05T12:41:14.209Z,96919.97
2023-02-05T12:43:47.812Z,96913.03
2023-02-05T12:46:37.103Z,96910.94
2023-02-05T12:49:19.799Z,96911.16
2023-02-05T12:52:01.211Z,96907.03
2023-02-05T12:54:46.630Z,96914.06
2023-02-05T12:57:19.970Z,96908.88
2023-02-05T12:59:51.784Z,96910.50
2023-02-05T13:02:27.305Z,96907.47
2023-02-05T13:05:02.731Z,96903.94
2023-02-05T13:07:36.201Z,96911.38
2023-02-05T13:10:07.960Z,96904.19
2023-02-05T13:12:40.285Z,96911.03
2023-02-05T13:15:17.722Z,96907.91
2023-02-05T13:17:55.621Z,96907.09
2023-02-05T13:20:47.043Z,96907.50
2023-02-05T13:23:34.258Z,96905.09
2023-02-05T13:26:23.715Z,96898.28
2023-02-05T13:28:55.261Z,96911.75
2023-02-05T13:31:31.308Z,96910.28
2023-02-05T13:34:05.121Z,96911.53
2023-02-05T13:37:11.153Z,96909.06
2023-02-05T13:40:08.065Z,96907.63
2023-02-05T13:43:15.533Z,96908.03
2023-02-05T13:46:20.090Z,96907.66
2023-02-05T13:49:20.781Z,96906.41
2023-02-05T13:52:07.571Z,96911.56
2023-02-05T13:55:09.051Z,96914.84
2023-02-05T13:58:12.853Z,96920.44
2023-02-05T14:00:43.421Z,96917.72
2023-02-05T14:03:27.113Z,96914.66
2023-02-05T14:05:55.042Z,96909.72
2023-02-05T14:08:26.402Z,96909.72
2023-02-05T14:11:00.262Z,96913.63
2023-02-05T14:13:33.607Z,96905.78
2023-02-05T14:16:34.289Z,96907.41
2023-02-05T14:19:15.222Z,96904.53
2023-02-05T14:21:58.179Z,96915.47
2023-02-05T14:24:40.314Z,96916.09
2023-02-05T14:27:41.945Z,96910.31
2023-02-05T14:30:46.154Z,96909.69
2023-02-05T14:33:36.171Z,96912.78
2023-02-05T14:36:36.767Z,96903.50
2023-02-05T14:39:18.702Z,96909.66
2023-02-05T14:41:51.937Z,96902.03
2023-02-05T14:44:24.999Z,96903.69
2023-02-05T14:47:05.331Z,96903.47
2023-02-05T14:49:43.241Z,96907.19
2023-02-05T14:52:28.070Z,96902.63
2023-02-05T14:55:00.336Z,96904.69
2023-02-05T14:57:35.860Z,96898.69
2023-02-05T15:00:05.472Z,96907.78
2023-02-05T15:03:00.750Z,96899.09
2023-02-05T15:05:36.176Z,96899.09
2023-02-05T15:08:12.157Z,96902.19
2023-02-05T15:10:49.927Z,96908.16
2023-02-05T15:13:20.078Z,96914.13
2023-02-05T15:16:22.463Z,96914.09
2023-02-05T15:18:54.014Z,96915.56
2023-02-05T15:21:26.390Z,96904.78
2023-02-05T15:24:01.728Z,96909.75
2023-02-05T15:26:40.686Z,96912.78
2023-02-05T15:29:14.953Z,96914.66
2023-02-05T15:31:47.630Z,96920.19
2023-02-05T15:34:30.875Z,96924.91
2023-02-05T15:37:04.518Z,96929.03
2023-02-05T15:39:43.338Z,96932.31
2023-02-05T15:42:17.226Z,96937.63
2023-02-05T15:44:45.016Z,96933.69
2023-02-05T15:47:19.680Z,96937.78
2023-02-05T15:49:52.696Z,96948.47
2023-02-05T15:52:23.575Z,96949.50
2023-02-05T15:54:52.873Z,96936.50
2023-02-05T15:57:24.236Z,96937.72
2023-02-05T15:59:54.036Z,96945.31
2023-02-05T16:02:24.054Z,96942.00
2023-02-05T16:04:58.627Z,96945.91
2023-02-05T16:07:29.424Z,96946.31
2023-02-05T16:09:59.663Z,96941.13
2023-02-05T16:12:30.461Z,96948.53
2023-02-05T16:15:02.362Z,96946.25
2023-02-05T16:17:36.692Z,96948.09
2023-02-05T16:20:17.598Z,96951.34
2023-02-05T16:22:48.864Z,96954.19
2023-02-05T16:25:27.962Z,96964.25
2023-02-05T16:27:57.082Z,96960.09
2023-02-05T16:30:34.928Z,96956.34
2023-02-05T16:33:05.061Z,96954.28
2023-02-05T16:35:38.518Z,96959.81
2023-02-05T16:38:09.209Z,96961.03
2023-02-05T16:40:40.897Z,96962.63
2023-02-05T16:43:22.060Z,96959.56
2023-02-05T16:46:23.969Z,96960.66
2023-02-05T16:48:53.702Z,96960.00
2023-02-05T16:51:35.474Z,96955.69
2023-02-05T16:54:29.769Z,96952.81
2023-02-05T16:57:03.194Z,96958.22
2023-02-05T16:59:34.812Z,96960.69
2023-02-05T17:02:03.484Z,96968.72
2023-02-05T17:04:34.676Z,96965.28
2023-02-05T17:07:07.207Z,96979.66
2023-02-05T17:09:37.235Z,96968.94
2023-02-05T17:12:41.466Z,96974.84
2023-02-05T17:15:37.492Z,96974.03
2023-02-05T17:18:23.720Z,96964.72
2023-02-05T17:20:51.500Z,96963.44
2023-02-05T17:23:20.625Z,96963.00
2023-02-05T17:25:55.092Z,96961.75
2023-02-05T17:28:25.865Z,96967.03
2023-02-05T17:30:55.166Z,96958.00
2023-02-05T17:33:24.760Z,96962.88
2023-02-05T17:35:52.748Z,96967.19
2023-02-05T17:38:23.552Z,96968.00
2023-02-05T17:41:11.481Z,96973.13
2023-02-05T17:43:39.573Z,96968.06
2023-02-05T17:46:12.802Z,96971.94
2023-02-05T17:48:40.652Z,96972.75
2023-02-05T17:51:12.290Z,96971.38
2023-02-05T17:53:44.004Z,96971.38
2023-02-05T17:56:13.204Z,96968.44
2023-02-05T17:58:41.771Z,96974.97
2023-02-05T18:01:11.817Z,96979.31
2023-02-05T18:03:39.726Z,96979.31
2023-02-05T18:06:07.573Z,96983.59
2023-02-05T18:08:37.113Z,96973.72
2023-02-05T18:11:06.482Z,96966.53
2023-02-05T18:13:36.706Z,96960.53
2023-02-05T18:16:05.038Z,96957.63
2023-02-05T18:18:35.777Z,96956.59
2023-02-05T18:21:03.499Z,96954.63
2023-02-05T18:23:31.390Z,96954.38
2023-02-05T18:26:00.220Z,96959.28
2023-02-05T18:28:29.679Z,96972.78
2023-02-05T18:30:59.093Z,96982.41
2023-02-05T18:33:26.998Z,96974.22
2023-02-05T18:35:55.194Z,96979.31
2023-02-05T18:38:23.474Z,96969.66
2023-02-05T18:40:51.493Z,96981.16
2023-02-05T18:43:19.363Z,96966.34
2023-02-05T18:45:48.462Z,96977.66
2023-02-05T18:48:18.278Z,96974.63
2023-02-05T18:50:45.982Z,96969.31
2023-02-05T18:53:13.711Z,96955.06
2023-02-05T18:55:41.398Z,96956.47
2023-02-05T18:58:09.086Z,96957.22
2023-02-05T19:00:37.477Z,96953.34
2023-02-05T19:03:06.727Z,96966.72
2023-02-05T19:05:35.751Z,96957.22
2023-02-05T19:08:06.266Z,96948.81
2023-02-05T19:10:34.429Z,96950.03
2023-02-05T19:13:02.308Z,96958.00
2023-02-05T19:15:31.593Z,96958.47
2023-02-05T19:17:59.304Z,96964.47
2023-02-05T19:20:28.367Z,96967.13
2023-02-05T19:22:56.064Z,96972.63
2023-02-05T19:25:24.059Z,96967.09
2023-02-05T19:27:53.127Z,96973.38
2023-02-05T19:30:20.970Z,96979.66
2023-02-05T19:32:48.717Z,96998.09
2023-02-05T19:35:16.486Z,96999.31
2023-02-05T19:37:45.561Z,96993.16
2023-02-05T19:40:15.271Z,96991.09
2023-02-05T19:42:44.596Z,97001.16
2023-02-05T19:45:12.383Z,96997.72
2023-02-05T19:47:40.087Z,96992.84
2023-02-05T19:50:08.614Z,97000.22
2023-02-05T19:52:39.350Z,96998.88
2023-02-05T19:55:09.032Z,97007.00
2023-02-05T19:57:36.726Z,97004.31
2023-02-05T20:00:05.265Z,96997.59
2023-02-05T20:02:35.363Z,97001.41
2023-02-05T20:05:03.120Z,97005.88
2023-02-05T20:07:33.829Z,97004.03
2023-02-05T20:10:01.678Z,97016.63
2023-02-05T20:12:30.749Z,97017.06
2023-02-05T20:14:58.514Z,97025.09
2023-02-05T20:17:26.304Z,97025.09
2023-02-05T20:20:02.559Z,97027.59
2023-02-05T20:22:36.862Z,97026.38
2023-02-05T20:25:04.972Z,97032.78
2023-02-05T20:27:34.021Z,97039.81
2023-02-05T20:30:18.925Z,97033.13
2023-02-05T20:32:46.646Z,97035.72
2023-02-05T20:35:14.340Z,97039.66
2023-02-05T20:37:42.087Z,97047.63
2023-02-05T20:40:11.055Z,97034.28
2023-02-05T20:42:40.145Z,97043.72
2023-02-05T20:45:08.676Z,97040.88
2023-02-05T20:47:36.459Z,97047.69
2023-02-05T20:50:04.265Z,97049.16
2023-02-05T20:52:32.030Z,97040.78
2023-02-05T20:54:59.798Z,97052.47
2023-02-05T20:57:27.557Z,97065.03
2023-02-05T20:59:56.635Z,97062.81
2023-02-05T21:02:24.408Z,97067.13
2023-02-05T21:04:52.816Z,97066.13
2023-02-05T21:07:25.081Z,97067.25
2023-02-05T21:09:53.531Z,97067.06
2023-02-05T21:12:21.273Z,97088.44
2023-02-05T21:14:51.514Z,97079.88
2023-02-05T21:17:20.580Z,97093.78
2023-02-05T21:19:48.269Z,97100.59
2023-02-05T21:22:15.979Z,97103.47
2023-02-05T21:24:43.720Z,97112.50
2023-02-05T21:27:11.946Z,97118.03
2023-02-05T21:29:39.632Z,97117.84
2023-02-05T21:32:08.069Z,97131.41
2023-02-05T21:34:37.117Z,97137.59
2023-02-05T21:37:04.788Z,97150.13
2023-02-05T21:39:32.968Z,97150.97
2023-02-05T21:42:06.645Z,97152.97
2023-02-05T21:44:34.317Z,97142.94
2023-02-05T21:47:02.006Z,97147.00
2023-02-05T21:49:29.705Z,97144.59
2023-02-05T21:51:58.779Z,97150.97
2023-02-05T21:54:26.471Z,97149.22
2023-02-05T21:56:54.131Z,97155.66
2023-02-05T21:59:23.544Z,97157.03
2023-02-05T22:01:51.323Z,97152.47
2023-02-05T22:04:21.909Z,97165.44
2023-02-05T22:06:51.249Z,97161.75
2023-02-05T22:09:20.585Z,97159.19
2023-02-05T22:11:50.376Z,97157.06
2023-02-05T22:14:18.111Z,97161.75
2023-02-05T22:16:46.040Z,97166.25
2023-02-05T22:19:13.893Z,97168.69
2023-02-05T22:21:43.485Z,97163.34
2023-02-05T22:24:15.102Z,97158.47
2023-02-05T22:26:45.199Z,97162.88
2023-02-05T22:29:16.430Z,97165.19
2023-02-05T22:31:46.326Z,97172.53
2023-02-05T22:34:14.075Z,97174.94
2023-02-05T22:36:41.832Z,97180.28
2023-02-05T22:39:09.631Z,97179.72
2023-02-05T22:41:39.294Z,97180.09
2023-02-05T22:44:10.002Z,97179.81
2023-02-05T22:46:42.469Z,97176.31
2023-02-05T22:49:15.113Z,97178.59
2023-02-05T22:51:45.588Z,97189.47
2023-02-05T22:54:14.676Z,97183.47
2023-02-05T23:01:25.697Z,97177.75
2023-02-05T23:03:56.120Z,97179.59
2023-02-05T23:06:25.515Z,97177.28
2023-02-05T23:08:55.044Z,97180.66
2023-02-05T23:11:23.216Z,97183.06
2023-02-05T23:13:50.968Z,97181.94
2023-02-05T23:16:20.598Z,97180.44
2023-02-05T23:18:50.522Z,97178.94
2023-02-05T23:21:20.566Z,97188.72
2023-02-05T23:23:49.566Z,97183.50
2023-02-05T23:26:19.547Z,97192.59
2023-02-05T23:28:47.770Z,97200.69
2023-02-05T23:31:16.203Z,97199.09
2023-02-05T23:33:44.096Z,97203.59
2023-02-05T23:36:13.223Z,97196.84
2023-02-05T23:38:41.316Z,97211.50
2023-02-05T23:41:09.315Z,97208.50
2023-02-05T23:43:38.242Z,97219.88
2023-02-05T23:46:08.903Z,97220.34
2023-02-05T23:48:36.765Z,97224.16
2023-02-05T23:51:04.603Z,97240.47
2023-02-05T23:53:33.629Z,97233.31
2023-02-05T23:56:03.717Z,97247.09
2023-02-05T23:58:31.397Z,97245.75
